Fulton, CA (95439)

4:13 AM PST on February 06, 2016 (GMT -0800)
Urban Tree Farm Nursery | | Change Station
CLOSE
Current Station
Personal Weather Station
Location: Fulton, CA
Elevation: 135 ft
Nearby Weather Stations

Elev 135 ft 38.49 °N, 122.77 °W | Updated 12 minutes ago

Clear
Clear
40.7 °F
Feels Like 41 °F
N
0.0
Wind Variable Wind from West
Gusts 2.0 mph

Today
High -- | Low -- °F
--% Chance of Precip.
Yesterday
High -- | Low -- °F
Precip. -- in
Pressure 30.39 in
Visibility 10.0 miles
Clouds Clear
Windchill 41 °F
Dew Point 40 °F
Humidity 96%
Rainfall 0.00 in
Snow Depth Not available.
7:12 AM 5:38 PM
Waning Crescent, 6% visible
METAR KSTS 061153Z AUTO 26003KT 10SM CLR 05/04 A3041 RMK AO2 SLP290 T00500044 10078 20044 50003
Pressure 30.39 in
Visibility 10.0 miles
Clouds Clear
Windchill 41 °F
Dew Point 40 °F
Humidity 96%
Rainfall 0.00 in
Snow Depth Not available.
7:12 AM 5:38 PM
Waning Crescent, 6% visible
METAR KSTS 061153Z AUTO 26003KT 10SM CLR 05/04 A3041 RMK AO2 SLP290 T00500044 10078 20044 50003

10-Day Weather Forecast

Almanac

Astronomy

Feb. 06, 2016 Rise Set
Actual Time
Civil Twilight
Nautical Twilight
Astronomical Twilight
Moon
Length of Visible Light
Length of Day
Tomorrow will be .
, % of the Moon is Illuminated

Today's Extremes

State Highs State Lows

Community

WunderPhotos

Upload Photos

1,890,944 photos uploaded!

WunderBlog® & News

Nearby

Air Quality

  Air Quality AQ Index Pollutant
Not available.

Snow Depth

Station Depth Elevation

Earthquake Activity

City Distance Mag. Time & Date
Minimum magnitude displayed is 2.5.

Coastal Water Temperatures

Place Temperature

Stations

Nearby Weather Stations

Station Location Temp. Windchill Dew Point Humidity Wind Precip. Elev Updated Type
                   

Watches & Warnings

There are currently no watches in effect.